createdAt,value
2022-07-30T02:10:38.693Z,100.00
2022-07-30T02:13:34.673Z,100.00
2022-07-30T02:34:36.687Z,100.00
2022-07-30T02:38:25.349Z,100.00
2022-07-30T02:41:16.686Z,100.00
2022-07-30T03:25:15.727Z,100.00
2022-07-30T03:28:40.748Z,100.00
2022-07-30T03:31:37.839Z,100.00
2022-07-30T03:34:29.699Z,100.00
2022-07-30T03:56:10.731Z,100.00
2022-07-30T04:18:21.716Z,100.00
2022-07-30T05:16:23.813Z,100.00
2022-07-30T06:38:27.843Z,100.00
2022-07-30T08:06:30.813Z,100.00
2022-07-30T08:54:45.568Z,100.00
2022-07-30T08:57:39.851Z,100.00
2022-07-30T09:00:45.300Z,100.00
2022-07-30T09:07:36.873Z,100.00
2022-07-30T09:28:19.885Z,97.02
2022-07-30T09:31:01.933Z,97.98
2022-07-30T09:33:53.876Z,96.23
2022-07-30T09:36:37.910Z,97.53
2022-07-30T09:39:38.930Z,96.72
2022-07-30T09:42:29.021Z,93.03
2022-07-30T09:48:23.038Z,91.27
2022-07-30T09:51:15.677Z,91.41
2022-07-30T09:53:59.351Z,91.91
2022-07-30T09:56:53.885Z,91.05
2022-07-30T09:59:43.937Z,89.56
2022-07-30T10:02:34.027Z,91.40
2022-07-30T10:05:16.563Z,87.86
2022-07-30T10:08:16.580Z,87.97
2022-07-30T10:11:08.637Z,88.61
2022-07-30T10:13:59.874Z,90.10
2022-07-30T10:16:40.671Z,88.44
2022-07-30T10:19:40.377Z,88.02
2022-07-30T10:22:22.365Z,88.07
2022-07-30T10:25:11.912Z,88.55
2022-07-30T10:27:57.689Z,85.03
2022-07-30T10:33:40.957Z,87.43
2022-07-30T10:36:31.921Z,85.31
2022-07-30T10:39:13.964Z,83.45
2022-07-30T10:42:27.920Z,81.84
2022-07-30T10:45:18.964Z,82.81
2022-07-30T10:48:09.911Z,79.60
2022-07-30T10:51:10.921Z,79.99
2022-07-30T10:54:14.921Z,82.90
2022-07-30T10:57:31.695Z,79.44
2022-07-30T11:00:15.548Z,77.42
2022-07-30T11:03:41.104Z,78.75
2022-07-30T11:10:04.286Z,78.38
2022-07-30T11:13:01.943Z,75.84
2022-07-30T11:16:14.905Z,77.89
2022-07-30T11:19:56.923Z,75.93
2022-07-30T11:22:38.883Z,77.63
2022-07-30T11:25:54.441Z,77.87
2022-07-30T11:29:01.925Z,74.83
2022-07-30T11:31:58.850Z,74.34
2022-07-30T11:34:48.938Z,73.49
2022-07-30T11:38:08.912Z,72.81
2022-07-30T11:41:18.937Z,69.18
2022-07-30T11:44:32.064Z,72.15
2022-07-30T11:47:21.947Z,71.09
2022-07-30T11:50:12.945Z,75.39
2022-07-30T11:52:54.306Z,71.21
2022-07-30T11:55:49.927Z,72.10
2022-07-30T11:58:43.954Z,72.53
2022-07-30T12:01:23.990Z,70.71
2022-07-30T12:04:15.962Z,74.71
2022-07-30T12:06:56.005Z,70.20
2022-07-30T12:09:45.960Z,70.05
2022-07-30T12:12:29.424Z,73.24
2022-07-30T12:15:19.944Z,76.41
2022-07-30T12:18:27.140Z,78.27
2022-07-30T12:21:13.989Z,80.40
2022-07-30T12:24:04.142Z,81.41
2022-07-30T12:26:53.945Z,79.26
2022-07-30T12:29:44.007Z,76.36
2022-07-30T12:32:33.969Z,75.16
2022-07-30T12:35:23.981Z,75.85
2022-07-30T12:38:21.970Z,76.00
2022-07-30T12:41:14.961Z,77.26
2022-07-30T12:43:57.042Z,78.08
2022-07-30T12:46:50.952Z,76.06
2022-07-30T12:49:50.251Z,78.92
2022-07-30T12:52:34.558Z,82.08
2022-07-30T12:55:26.985Z,84.03
2022-07-30T12:58:09.113Z,87.20
2022-07-30T13:01:07.011Z,89.28
2022-07-30T13:03:47.363Z,90.35
2022-07-30T13:06:37.979Z,91.53
2022-07-30T13:09:20.710Z,91.41
2022-07-30T13:12:37.987Z,92.02
2022-07-30T13:15:22.754Z,92.00
2022-07-30T13:18:11.983Z,92.64
2022-07-30T13:21:04.021Z,92.81
2022-07-30T13:23:56.022Z,92.88
2022-07-30T13:26:36.618Z,93.65
2022-07-30T13:29:28.999Z,93.12
2022-07-30T13:32:09.556Z,92.71
2022-07-30T13:35:01.543Z,92.43
2022-07-30T13:37:52.000Z,91.42
2022-07-30T13:40:32.180Z,87.29
2022-07-30T13:43:22.006Z,87.00
2022-07-30T13:46:03.200Z,87.35
2022-07-30T13:48:53.079Z,85.96
2022-07-30T13:51:42.994Z,89.67
2022-07-30T13:54:33.020Z,91.71
2022-07-30T13:57:23.023Z,91.10
2022-07-30T14:00:06.796Z,88.22
2022-07-30T14:02:57.030Z,87.12
2022-07-30T14:05:42.030Z,85.00
2022-07-30T14:08:32.026Z,84.88
2022-07-30T14:11:22.030Z,86.74
2022-07-30T14:14:02.093Z,86.54
2022-07-30T14:16:58.979Z,84.28
2022-07-30T14:19:39.077Z,83.42
2022-07-30T14:22:29.010Z,81.13
2022-07-30T14:25:19.006Z,81.54
2022-07-30T14:28:09.038Z,81.23
2022-07-30T14:30:59.014Z,81.02
2022-07-30T14:33:49.030Z,78.54
2022-07-30T14:36:30.156Z,75.92
2022-07-30T14:39:23.038Z,76.35
2022-07-30T14:42:03.095Z,77.00
2022-07-30T14:44:56.802Z,86.02
2022-07-30T14:47:47.032Z,91.00
2022-07-30T14:50:27.382Z,91.64
2022-07-30T14:53:21.862Z,90.56
2022-07-30T14:56:12.037Z,89.09
2022-07-30T14:58:53.097Z,88.43
2022-07-30T15:01:43.168Z,89.30
2022-07-30T15:04:25.404Z,90.09
2022-07-30T15:07:15.037Z,89.84
2022-07-30T15:10:05.030Z,91.23
2022-07-30T15:12:45.647Z,91.02
2022-07-30T15:15:38.378Z,88.72
2022-07-30T15:18:28.062Z,89.90
2022-07-30T15:21:09.149Z,88.66
2022-07-30T15:23:59.052Z,87.88
2022-07-30T15:26:39.322Z,85.96
2022-07-30T15:29:29.214Z,85.19
2022-07-30T15:32:09.128Z,85.34
2022-07-30T15:35:13.202Z,86.59
2022-07-30T15:38:03.076Z,83.65
2022-07-30T15:40:43.766Z,83.36
2022-07-30T15:43:33.046Z,83.20
2022-07-30T15:46:23.087Z,76.56
2022-07-30T15:49:03.179Z,76.29
2022-07-30T15:51:58.074Z,76.59
2022-07-30T15:54:48.140Z,75.52
2022-07-30T15:57:28.399Z,72.91
2022-07-30T16:00:18.081Z,73.91
2022-07-30T16:02:59.635Z,73.40
2022-07-30T16:05:51.155Z,72.63
2022-07-30T16:08:42.073Z,71.82
2022-07-30T16:11:22.226Z,70.97
2022-07-30T16:14:12.095Z,70.70
2022-07-30T16:16:55.240Z,73.08
2022-07-30T16:19:45.352Z,71.79
2022-07-30T16:22:35.066Z,72.28
2022-07-30T16:25:25.105Z,72.58
2022-07-30T16:28:15.096Z,73.11
2022-07-30T16:31:05.092Z,73.79
2022-07-30T16:33:45.198Z,73.55
2022-07-30T16:36:35.127Z,74.73
2022-07-30T16:39:22.158Z,74.81
2022-07-30T16:42:05.430Z,74.90
2022-07-30T16:44:45.492Z,76.29
2022-07-30T16:47:35.111Z,78.09
2022-07-30T16:50:16.037Z,79.08
2022-07-30T16:53:08.496Z,79.31
2022-07-30T16:55:50.453Z,79.54
2022-07-30T16:58:40.114Z,79.04
2022-07-30T17:01:20.473Z,79.41
2022-07-30T17:04:10.131Z,80.82
2022-07-30T17:06:51.636Z,78.03
2022-07-30T17:09:41.131Z,75.80
2022-07-30T17:12:25.272Z,75.51
2022-07-30T17:15:15.148Z,75.84
2022-07-30T17:18:05.130Z,74.27
2022-07-30T17:20:45.208Z,74.60
2022-07-30T17:23:35.138Z,77.16
2022-07-30T17:26:15.510Z,73.33
2022-07-30T17:29:05.140Z,76.66
2022-07-30T17:31:59.238Z,77.11
2022-07-30T17:34:41.485Z,78.92
2022-07-30T17:37:31.120Z,77.68
2022-07-30T17:40:28.495Z,79.74
2022-07-30T17:43:13.886Z,80.45
2022-07-30T17:46:04.120Z,81.64
2022-07-30T17:48:44.241Z,79.42
2022-07-30T17:51:34.139Z,78.45
2022-07-30T17:54:14.242Z,80.01
2022-07-30T17:57:04.150Z,80.74
2022-07-30T17:59:54.119Z,79.47
2022-07-30T18:02:45.164Z,78.07
2022-07-30T18:05:25.192Z,80.96
2022-07-30T18:08:15.148Z,79.74
2022-07-30T18:11:05.135Z,77.80
2022-07-30T18:13:48.524Z,78.91
2022-07-30T18:16:38.156Z,79.22
2022-07-30T18:19:22.650Z,79.15
2022-07-30T18:22:17.151Z,76.25
2022-07-30T18:25:18.968Z,76.54
2022-07-30T18:28:09.149Z,78.16
2022-07-30T18:30:52.025Z,78.65
2022-07-30T18:33:42.157Z,76.73
2022-07-30T18:36:22.513Z,78.02
2022-07-30T18:39:12.141Z,79.45
2022-07-30T18:41:52.686Z,77.40
2022-07-30T18:44:42.148Z,77.95
2022-07-30T18:47:22.470Z,78.87
2022-07-30T18:50:12.230Z,78.52
2022-07-30T18:52:52.578Z,79.75
2022-07-30T18:55:42.173Z,79.25
2022-07-30T18:58:25.630Z,80.52
2022-07-30T19:01:15.207Z,78.07
2022-07-30T19:03:55.680Z,79.27
2022-07-30T19:06:47.180Z,79.83
2022-07-30T19:09:27.641Z,81.68
2022-07-30T19:12:17.179Z,82.47
2022-07-30T19:14:57.901Z,82.31
2022-07-30T19:17:47.166Z,82.33
2022-07-30T19:20:27.584Z,81.50
2022-07-30T19:23:20.178Z,80.18
2022-07-30T19:26:00.543Z,79.10
2022-07-30T19:28:50.210Z,80.63
2022-07-30T19:31:30.573Z,81.43
2022-07-30T19:34:20.192Z,82.36
2022-07-30T19:37:14.178Z,82.74
2022-07-30T19:40:14.180Z,83.35
2022-07-30T19:42:55.780Z,83.81
2022-07-30T19:45:48.234Z,83.68
2022-07-30T19:48:31.519Z,83.29
2022-07-30T19:51:21.294Z,83.18
2022-07-30T19:54:05.595Z,81.79
2022-07-30T19:56:55.177Z,81.10
2022-07-30T19:59:59.603Z,82.73
2022-07-30T20:02:53.257Z,82.71
2022-07-30T20:05:54.817Z,83.35
2022-07-30T20:08:44.961Z,82.91
2022-07-30T20:11:36.266Z,84.31
2022-07-30T20:14:26.234Z,84.15
2022-07-30T20:17:16.193Z,82.97
2022-07-30T20:20:08.211Z,82.10
2022-07-30T20:22:48.718Z,82.15
2022-07-30T20:25:38.221Z,82.57
2022-07-30T20:28:32.224Z,83.64
2022-07-30T20:31:13.301Z,84.10
2022-07-30T20:34:03.219Z,85.76
2022-07-30T20:36:44.343Z,85.30
2022-07-30T20:39:35.232Z,86.33
2022-07-30T20:42:15.835Z,84.17
2022-07-30T20:45:06.229Z,83.50
2022-07-30T20:47:59.217Z,84.30
2022-07-30T20:50:51.240Z,83.99
2022-07-30T20:53:33.415Z,83.71
2022-07-30T20:56:28.244Z,83.73
2022-07-30T20:59:23.736Z,83.97
2022-07-30T21:02:15.271Z,84.02
2022-07-30T21:05:05.232Z,84.73
2022-07-30T21:07:56.232Z,85.33
2022-07-30T21:10:38.471Z,85.17
2022-07-30T21:13:28.254Z,85.08
2022-07-30T21:16:22.242Z,87.27
2022-07-30T21:19:12.229Z,86.76
2022-07-30T21:21:54.324Z,86.98
2022-07-30T21:24:44.245Z,87.53
2022-07-30T21:27:39.256Z,87.10
2022-07-30T21:30:30.285Z,87.94
2022-07-30T21:33:20.254Z,88.05
2022-07-30T21:36:10.312Z,88.37
2022-07-30T21:39:04.252Z,88.50
2022-07-30T21:41:48.065Z,88.53
2022-07-30T21:44:41.253Z,88.96
2022-07-30T21:47:25.109Z,87.77
2022-07-30T21:50:19.301Z,88.33
2022-07-30T21:53:04.104Z,88.96
2022-07-30T21:55:57.229Z,89.42
2022-07-30T21:58:50.270Z,89.15
2022-07-30T22:01:38.010Z,90.35
2022-07-30T22:07:32.803Z,91.83
2022-07-30T22:10:25.253Z,92.27
2022-07-30T22:13:08.954Z,92.05
2022-07-30T22:16:03.262Z,92.87
2022-07-30T22:18:46.813Z,93.04
2022-07-30T22:24:40.934Z,90.54
2022-07-30T22:27:39.456Z,89.94
2022-07-30T22:30:23.842Z,90.22
2022-07-30T22:33:23.259Z,90.30
2022-07-30T22:36:24.621Z,91.37
2022-07-30T22:39:21.291Z,93.25
2022-07-30T22:42:15.291Z,92.61
2022-07-30T22:44:59.098Z,93.15
2022-07-30T22:47:54.362Z,92.08
2022-07-30T22:50:51.738Z,91.07
2022-07-30T22:54:03.612Z,91.49
2022-07-30T22:56:48.280Z,91.61
2022-07-30T22:59:58.157Z,90.30
2022-07-30T23:02:44.276Z,90.03
2022-07-30T23:05:40.012Z,92.31
2022-07-30T23:08:37.315Z,92.12
2022-07-30T23:11:21.130Z,92.29
2022-07-30T23:14:15.288Z,91.75
2022-07-30T23:17:08.295Z,90.74
2022-07-30T23:19:52.090Z,92.59
2022-07-30T23:22:45.289Z,94.39
2022-07-30T23:25:38.473Z,92.63
2022-07-30T23:28:31.285Z,93.67
2022-07-30T23:31:25.184Z,94.34
2022-07-30T23:34:06.628Z,94.42
2022-07-30T23:36:56.293Z,94.65
2022-07-30T23:39:53.261Z,92.29
2022-07-30T23:42:43.301Z,92.56
2022-07-30T23:45:24.333Z,92.45
2022-07-30T23:48:15.495Z,93.73
2022-07-30T23:51:05.282Z,95.91
2022-07-30T23:53:45.670Z,95.68
2022-07-30T23:56:35.303Z,93.45
2022-07-30T23:59:40.715Z,94.53
